createdAt,value
2023-02-22T00:04:00.760Z,3.10
2023-02-22T00:10:04.429Z,3.00
2023-02-22T00:16:08.190Z,2.90
2023-02-22T00:22:11.735Z,3.40
2023-02-22T00:28:15.309Z,2.90
2023-02-22T00:34:18.841Z,3.00
2023-02-22T00:40:22.447Z,2.60
2023-02-22T00:46:26.416Z,4.00
2023-02-22T00:52:29.790Z,2.90
2023-02-22T00:58:33.354Z,2.60
2023-02-22T01:04:36.950Z,2.30
2023-02-22T01:10:40.421Z,2.90
2023-02-22T01:16:43.919Z,2.70
2023-02-22T01:22:47.501Z,2.50
2023-02-22T01:28:51.008Z,2.30
2023-02-22T01:34:54.504Z,2.20
2023-02-22T01:40:58.085Z,3.40
2023-02-22T01:47:01.552Z,4.00
2023-02-22T01:53:05.095Z,3.40
2023-02-22T01:59:08.601Z,3.90
2023-02-22T02:05:12.239Z,2.60
2023-02-22T02:11:16.060Z,3.00
2023-02-22T02:17:19.757Z,2.90
2023-02-22T02:23:35.179Z,2.60
2023-02-22T02:29:47.814Z,3.60
2023-02-22T02:41:46.822Z,2.50
2023-02-22T02:47:53.129Z,3.00
2023-02-22T02:53:56.495Z,3.00
2023-02-22T03:00:05.774Z,3.30
2023-02-22T03:06:27.375Z,2.90
2023-02-22T03:12:33.621Z,2.90
2023-02-22T03:19:01.221Z,3.70
2023-02-22T03:25:10.729Z,3.30
2023-02-22T03:31:23.410Z,2.90
2023-02-22T03:37:27.000Z,3.10
2023-02-22T03:43:30.475Z,3.50
2023-02-22T03:49:32.382Z,2.90
2023-02-22T03:55:35.940Z,3.20
2023-02-22T04:01:39.425Z,3.80
2023-02-22T04:07:43.032Z,2.90
2023-02-22T04:13:46.413Z,3.40
2023-02-22T04:19:49.960Z,3.00
2023-02-22T04:25:53.435Z,3.20
2023-02-22T04:31:56.949Z,4.30
2023-02-22T04:38:00.415Z,3.20
2023-02-22T04:44:04.115Z,3.30
2023-02-22T04:49:50.593Z,3.00
2023-02-22T04:55:54.095Z,3.30
2023-02-22T05:01:50.963Z,4.60
2023-02-22T05:07:54.763Z,4.60
2023-02-22T05:13:56.770Z,4.40
2023-02-22T05:20:00.328Z,3.40
2023-02-22T05:26:04.170Z,4.00
2023-02-22T05:32:07.713Z,5.20
2023-02-22T05:38:03.759Z,4.10
2023-02-22T05:44:07.148Z,4.60
2023-02-22T05:49:59.041Z,4.80
2023-02-22T05:56:02.618Z,4.70
2023-02-22T06:02:06.152Z,3.90
2023-02-22T06:08:09.626Z,5.70
2023-02-22T06:14:13.331Z,5.30
2023-02-22T06:20:16.795Z,4.80
2023-02-22T06:26:20.366Z,5.20
2023-02-22T06:32:22.740Z,4.60
2023-02-22T06:38:26.283Z,5.10
2023-02-22T06:44:29.795Z,4.80
2023-02-22T06:50:28.801Z,5.60
2023-02-22T06:56:32.407Z,5.80
2023-02-22T07:02:36.135Z,5.80
2023-02-22T07:08:32.579Z,5.70
2023-02-22T07:14:35.947Z,7.00
2023-02-22T07:20:32.445Z,6.80
2023-02-22T07:26:35.871Z,7.80
2023-02-22T07:32:39.425Z,7.80
2023-02-22T07:38:42.873Z,8.30
2023-02-22T07:44:46.529Z,7.90
2023-02-22T07:50:52.807Z,7.80
2023-02-22T07:56:56.351Z,5.90
2023-02-22T08:02:59.742Z,7.40
2023-02-22T08:09:03.367Z,6.10
2023-02-22T08:14:59.274Z,6.10
2023-02-22T08:21:02.949Z,5.80
2023-02-22T08:27:06.705Z,7.60
2023-02-22T08:33:10.331Z,4.40
2023-02-22T08:39:19.987Z,5.00
2023-02-22T08:45:23.391Z,5.20
2023-02-22T08:51:27.847Z,4.60
2023-02-22T08:57:24.552Z,3.70
2023-02-22T09:03:28.061Z,3.50
2023-02-22T09:09:31.930Z,3.60
2023-02-22T09:15:34.979Z,4.10
2023-02-22T09:21:38.404Z,4.00
2023-02-22T09:27:41.811Z,3.80
2023-02-22T09:33:47.372Z,3.60
2023-02-22T09:39:50.982Z,4.00
2023-02-22T09:46:00.266Z,4.70
2023-02-22T09:52:08.186Z,5.10
2023-02-22T09:58:11.670Z,5.00
2023-02-22T10:04:20.970Z,6.70
2023-02-22T10:10:24.598Z,5.00
2023-02-22T10:16:28.188Z,4.30
2023-02-22T10:22:34.590Z,5.00
2023-02-22T10:28:41.272Z,4.30
2023-02-22T10:34:50.929Z,3.40
2023-02-22T10:41:00.315Z,4.10
2023-02-22T10:47:03.835Z,3.40
2023-02-22T10:53:07.226Z,3.40
2023-02-22T10:59:03.372Z,3.00
2023-02-22T11:05:12.777Z,3.50
2023-02-22T11:11:16.951Z,3.60
2023-02-22T11:17:34.376Z,3.90
2023-02-22T11:23:37.791Z,4.10
2023-02-22T11:29:44.637Z,2.20
2023-02-22T11:35:22.161Z,3.40
2023-02-22T11:41:08.588Z,3.90
2023-02-22T11:47:11.623Z,2.80
2023-02-22T11:53:03.748Z,3.50
2023-02-22T12:05:20.949Z,3.50
2023-02-22T12:11:18.460Z,3.20
2023-02-22T12:17:05.897Z,3.00
2023-02-22T12:23:04.193Z,3.10
2023-02-22T12:29:15.484Z,3.70
2023-02-22T12:35:24.918Z,3.60
2023-02-22T12:41:17.602Z,3.10
2023-02-22T12:47:24.196Z,3.50
2023-02-22T12:53:36.666Z,4.70
2023-02-22T12:59:42.923Z,2.90
2023-02-22T13:05:46.531Z,3.30
2023-02-22T13:11:54.148Z,3.50
2023-02-22T13:18:16.396Z,3.60
2023-02-22T13:24:44.536Z,2.90
2023-02-22T13:30:48.148Z,3.60
2023-02-22T13:36:51.546Z,3.40
2023-02-22T13:42:33.027Z,3.50
2023-02-22T13:48:44.002Z,3.60
2023-02-22T13:54:37.850Z,3.20
2023-02-22T14:00:29.116Z,2.60
2023-02-22T14:06:34.188Z,3.20
2023-02-22T14:12:37.731Z,3.10
2023-02-22T14:18:40.190Z,3.30
2023-02-22T14:24:51.091Z,2.60
2023-02-22T14:30:45.359Z,2.90
2023-02-22T14:36:39.174Z,2.10
2023-02-22T14:42:48.506Z,2.70
2023-02-22T14:48:52.629Z,2.70
2023-02-22T14:55:11.252Z,3.00
2023-02-22T15:01:11.704Z,3.30
2023-02-22T15:07:07.831Z,2.60
2023-02-22T15:13:11.867Z,3.30
2023-02-22T15:19:10.449Z,2.00
2023-02-22T15:25:14.201Z,2.60
2023-02-22T15:31:09.028Z,3.00
2023-02-22T15:37:09.567Z,3.10
2023-02-22T15:43:07.699Z,3.50
2023-02-22T15:49:11.321Z,3.60
2023-02-22T15:55:16.271Z,3.50
2023-02-22T16:00:53.256Z,3.00
2023-02-22T16:06:21.357Z,3.00
2023-02-22T16:11:52.508Z,2.20
2023-02-22T16:18:06.725Z,3.50
2023-02-22T16:24:25.344Z,3.30
2023-02-22T16:30:24.369Z,2.70
2023-02-22T16:36:28.600Z,3.50
2023-02-22T16:42:32.088Z,3.50
2023-02-22T16:48:24.433Z,4.50
2023-02-22T16:54:18.844Z,3.50
2023-02-22T17:00:10.742Z,2.90
2023-02-22T17:07:05.232Z,4.00
2023-02-22T17:17:56.884Z,3.80
2023-02-22T17:23:33.729Z,3.30
2023-02-22T17:29:09.930Z,3.50
2023-02-22T17:34:45.539Z,2.90
2023-02-22T17:40:21.898Z,3.40
2023-02-22T17:45:57.589Z,2.50
2023-02-22T17:51:33.798Z,3.00
2023-02-22T17:57:09.825Z,3.20
2023-02-22T18:02:45.781Z,5.70
2023-02-22T18:08:22.610Z,6.20
2023-02-22T18:13:58.803Z,5.10
2023-02-22T18:19:35.819Z,4.00
2023-02-22T18:25:11.948Z,3.90
2023-02-22T18:31:15.575Z,3.80
2023-02-22T18:37:01.609Z,3.80
2023-02-22T18:43:05.047Z,3.80
2023-02-22T18:49:08.603Z,3.60
2023-02-22T18:55:11.991Z,3.90
2023-02-22T19:01:15.494Z,3.80
2023-02-22T19:07:18.864Z,4.40
2023-02-22T19:13:22.337Z,4.90
2023-02-22T19:19:26.721Z,4.90
2023-02-22T19:25:30.207Z,7.20
2023-02-22T19:31:33.943Z,8.50
2023-02-22T19:37:40.308Z,9.60
2023-02-22T19:43:43.674Z,7.60
2023-02-22T19:49:47.143Z,6.70
2023-02-22T19:55:50.522Z,5.40
2023-02-22T20:01:44.159Z,5.40
2023-02-22T20:07:48.054Z,6.20
2023-02-22T20:13:51.435Z,4.80
2023-02-22T20:19:54.910Z,4.80
2023-02-22T20:25:58.367Z,4.60
2023-02-22T20:31:54.386Z,4.00
2023-02-22T20:37:57.836Z,4.60
2023-02-22T20:44:01.702Z,4.30
2023-02-22T20:50:05.152Z,4.80
2023-02-22T20:56:08.597Z,4.50
2023-02-22T21:02:11.993Z,4.60
2023-02-22T21:08:15.479Z,3.70
2023-02-22T21:14:18.978Z,4.60
2023-02-22T21:20:15.391Z,5.30
2023-02-22T21:26:18.781Z,6.50
2023-02-22T21:32:22.421Z,4.70
2023-02-22T21:38:25.952Z,5.60
2023-02-22T21:44:28.283Z,5.40
2023-02-22T21:50:32.203Z,5.50
2023-02-22T21:56:35.568Z,6.00
2023-02-22T22:02:41.876Z,5.50
2023-02-22T22:08:45.315Z,6.30
2023-02-22T22:14:42.744Z,7.10
2023-02-22T22:20:46.292Z,8.50
2023-02-22T22:26:49.763Z,8.40
2023-02-22T22:32:53.165Z,7.70
2023-02-22T22:38:59.242Z,7.60
2023-02-22T22:45:02.786Z,7.30
2023-02-22T22:51:06.335Z,8.30
2023-02-22T22:57:09.801Z,9.20
2023-02-22T23:03:13.280Z,9.00
2023-02-22T23:09:16.743Z,10.10
2023-02-22T23:15:20.178Z,9.20
2023-02-22T23:21:23.647Z,9.90
2023-02-22T23:27:27.059Z,11.30
2023-02-22T23:33:30.809Z,11.10
2023-02-22T23:39:34.212Z,10.70
2023-02-22T23:45:37.755Z,11.30
2023-02-22T23:51:41.364Z,11.50
2023-02-22T23:57:44.747Z,11.50
